Time;durP1;ratioP1;P1;durP2;ratioP2;P2;SDS_P1;SDS_P2;PMS_P1;PMS_P2;Temp;Humidity;BMP_temperature;BMP_pressure;BME280_temperature;BME280_humidity;BME280_pressure;Samples;Min_cycle;Max_cycle;Signal;HPM_P1;HPM_P2
2021/12/26 00:00:22;;;;;;;28.83;14.27;;;;;;;3.48;100.00;95690.75;5112674;28;20388;-68
2021/12/26 00:02:47;;;;;;;49.03;14.70;;;;;;;3.77;100.00;95692.72;5113298;28;20899;-68
2021/12/26 00:05:14;;;;;;;98.20;14.27;;;;;;;3.83;100.00;95691.09;5113047;28;20489;-68
2021/12/26 00:07:39;;;;;;;74.57;14.90;;;;;;;3.85;100.00;95689.88;5094923;28;20415;-68
2021/12/26 00:10:07;;;;;;;140.15;14.40;;;;;;;3.95;100.00;95692.00;5113646;28;20392;-67
2021/12/26 00:12:33;;;;;;;57.17;13.38;;;;;;;3.88;100.00;95688.66;5095155;28;20381;-68
2021/12/26 00:14:58;;;;;;;181.47;13.87;;;;;;;3.83;100.00;95686.72;5113730;28;20881;-68
2021/12/26 00:17:24;;;;;;;118.93;13.40;;;;;;;3.86;100.00;95686.28;5113463;28;20841;-68
2021/12/26 00:19:50;;;;;;;90.65;13.63;;;;;;;3.71;100.00;95688.41;5113315;28;20392;-69
2021/12/26 00:22:16;;;;;;;120.75;13.60;;;;;;;3.54;100.00;95682.13;5113400;28;20670;-69
2021/12/26 00:24:41;;;;;;;159.60;14.98;;;;;;;3.54;100.00;95682.94;5113719;28;20905;-69
2021/12/26 00:27:06;;;;;;;275.60;15.95;;;;;;;3.62;100.00;95682.66;5112656;28;20826;-66
2021/12/26 00:29:32;;;;;;;60.13;15.50;;;;;;;3.59;100.00;95682.28;5094904;28;20395;-67
2021/12/26 00:31:57;;;;;;;149.73;17.38;;;;;;;3.47;100.00;95689.94;5112515;28;20399;-66
2021/12/26 00:34:23;;;;;;;76.80;15.17;;;;;;;3.60;100.00;95687.28;5113198;28;20380;-67
2021/12/26 00:36:48;;;;;;;221.93;16.23;;;;;;;3.60;100.00;95686.47;5112751;28;20424;-67
2021/12/26 00:39:15;;;;;;;124.97;15.53;;;;;;;3.74;100.00;95686.16;5112670;28;20403;-67
2021/12/26 00:41:41;;;;;;;185.02;16.50;;;;;;;3.60;100.00;95687.28;5113042;28;20441;-66
2021/12/26 00:44:08;;;;;;;179.47;17.33;;;;;;;3.51;100.00;95691.09;5112432;28;20388;-66
2021/12/26 00:46:33;;;;;;;188.55;17.70;;;;;;;3.55;100.00;95686.31;5112705;28;20392;-66
2021/12/26 00:48:59;;;;;;;257.95;17.58;;;;;;;3.50;100.00;95684.38;5112229;28;20453;-67
2021/12/26 00:51:24;;;;;;;234.90;17.57;;;;;;;3.34;100.00;95677.09;5112869;28;20483;-67
2021/12/26 00:53:49;;;;;;;279.00;19.25;;;;;;;3.35;100.00;95676.06;5112939;28;20877;-66
2021/12/26 00:56:15;;;;;;;184.77;17.90;;;;;;;3.48;100.00;95683.75;5112038;28;20400;-67
2021/12/26 00:58:41;;;;;;;179.90;17.57;;;;;;;3.39;100.00;95681.63;5112586;28;20388;-66
2021/12/26 01:01:07;;;;;;;163.90;17.48;;;;;;;3.55;100.00;95681.94;5093781;28;20388;-67
2021/12/26 01:03:32;;;;;;;144.60;18.03;;;;;;;3.56;100.00;95683.53;5112329;28;20481;-67
2021/12/26 01:05:59;;;;;;;205.52;18.00;;;;;;;3.59;100.00;95677.13;5093253;28;20857;-67
2021/12/26 01:08:29;;;;;;;129.13;17.57;;;;;;;3.52;100.00;95679.75;5112004;28;20423;-67
2021/12/26 01:11:00;;;;;;;211.20;17.02;;;;;;;3.38;100.00;95680.84;5112187;28;20384;-68
2021/12/26 01:13:31;;;;;;;205.05;16.50;;;;;;;3.22;100.00;95674.38;5112573;28;20396;-66
2021/12/26 01:16:00;;;;;;;190.20;15.23;;;;;;;3.28;100.00;95678.72;5111884;28;20855;-66
2021/12/26 01:18:29;;;;;;;185.88;15.35;;;;;;;3.46;100.00;95678.00;5112343;28;20392;-66
2021/12/26 01:21:04;;;;;;;219.32;16.13;;;;;;;3.31;100.00;95680.09;5093622;28;20521;-67
2021/12/26 01:23:33;;;;;;;130.73;14.40;;;;;;;3.19;100.00;95679.16;5112194;28;20396;-67
2021/12/26 01:25:59;;;;;;;57.30;14.52;;;;;;;3.31;100.00;95677.50;5094088;28;20384;-67
2021/12/26 01:28:29;;;;;;;165.23;14.88;;;;;;;3.47;100.00;95681.38;5112204;28;20407;-67
2021/12/26 01:30:57;;;;;;;242.63;14.80;;;;;;;3.22;100.00;95679.53;5111735;28;20380;-70
2021/12/26 01:33:23;;;;;;;168.88;14.68;;;;;;;3.39;100.00;95687.63;5103893;28;20388;-68
2021/12/26 01:35:48;;;;;;;139.52;13.98;;;;;;;3.49;100.00;95693.13;5112139;28;20903;-67
2021/12/26 01:38:15;;;;;;;94.07;13.75;;;;;;;3.70;100.00;95685.00;5112102;28;20764;-67
2021/12/26 01:40:47;;;;;;;75.55;13.40;;;;;;;3.65;100.00;95694.41;5112102;28;20856;-66
2021/12/26 01:43:14;;;;;;;213.23;13.27;;;;;;;3.63;100.00;95692.03;5112109;28;20906;-66
2021/12/26 01:45:40;;;;;;;91.45;12.02;;;;;;;3.45;100.00;95691.97;5111662;28;20546;-66
2021/12/26 01:48:06;;;;;;;198.32;13.27;;;;;;;3.47;100.00;95694.31;5093555;28;20495;-66
2021/12/26 01:50:32;;;;;;;86.28;12.07;;;;;;;3.66;100.00;95693.41;5111923;28;20487;-67
2021/12/26 01:52:59;;;;;;;251.82;13.43;;;;;;;3.48;100.00;95688.16;5111530;28;20471;-67
2021/12/26 01:55:37;;;;;;;128.60;12.73;;;;;;;3.36;100.00;95690.59;5111809;28;20463;-66
2021/12/26 01:58:04;;;;;;;93.15;11.73;;;;;;;3.40;100.00;95691.78;5093449;28;20847;-68
2021/12/26 02:00:29;;;;;;;162.85;13.68;;;;;;;3.43;100.00;95693.16;5111424;28;20487;-67
2021/12/26 02:02:55;;;;;;;72.80;11.98;;;;;;;3.63;100.00;95692.03;5111297;28;20479;-66
2021/12/26 02:05:20;;;;;;;85.82;11.57;;;;;;;3.51;100.00;95696.28;5093042;28;20946;-67
2021/12/26 02:07:46;;;;;;;129.00;12.33;;;;;;;3.56;100.00;95695.69;5111213;28;20457;-67
2021/12/26 02:10:12;;;;;;;64.40;11.53;;;;;;;3.45;100.00;95698.94;5084359;28;20388;-66
2021/12/26 02:12:37;;;;;;;72.97;11.27;;;;;;;3.60;100.00;95691.66;5111707;28;20380;-66
2021/12/26 02:15:03;;;;;;;108.55;11.05;;;;;;;3.60;100.00;95692.47;5111031;28;20388;-66
2021/12/26 02:17:29;;;;;;;108.43;11.10;;;;;;;3.65;100.00;95695.22;5113824;28;20491;-65
2021/12/26 02:20:18;;;;;;;96.22;10.95;;;;;;;3.69;100.00;95692.97;5115589;28;20471;-66
2021/12/26 02:22:49;;;;;;;52.30;10.93;;;;;;;3.65;100.00;95684.84;5115725;28;20431;-66
2021/12/26 02:25:32;;;;;;;137.90;10.60;;;;;;;3.63;100.00;95684.25;5115302;28;20403;-67
2021/12/26 02:27:59;;;;;;;172.13;11.50;;;;;;;3.91;100.00;95688.22;5114760;28;20864;-67
2021/12/26 02:30:25;;;;;;;120.38;11.60;;;;;;;3.83;100.00;95694.50;5115339;28;20487;-67
2021/12/26 02:32:51;;;;;;;51.58;11.10;;;;;;;3.54;100.00;95685.53;5115514;28;20482;-67
2021/12/26 02:35:20;;;;;;;101.00;11.30;;;;;;;3.69;100.00;95691.19;5115189;28;20392;-67
2021/12/26 02:37:46;;;;;;;121.30;10.95;;;;;;;3.70;100.00;95689.41;5114847;28;20415;-67
2021/12/26 02:40:12;;;;;;;202.60;12.67;;;;;;;3.78;100.00;95689.16;5115540;28;20388;-68
2021/12/26 02:42:38;;;;;;;146.65;11.40;;;;;;;3.68;100.00;95691.38;5097302;28;20860;-66
2021/12/26 02:45:03;;;;;;;65.13;10.17;;;;;;;3.76;100.00;95694.53;5115399;28;20403;-66
2021/12/26 02:47:41;;;;;;;108.57;10.57;;;;;;;3.43;100.00;95686.19;5115416;28;20400;-66
2021/12/26 02:50:12;;;;;;;24.23;9.82;;;;;;;3.47;100.00;95691.72;5115266;28;20483;-67
2021/12/26 02:52:37;;;;;;;26.95;9.77;;;;;;;3.60;100.00;95686.47;5115128;28;20433;-67
2021/12/26 02:55:05;;;;;;;32.90;9.67;;;;;;;3.52;100.00;95684.13;5115025;28;20384;-67
2021/12/26 02:57:31;;;;;;;63.85;9.70;;;;;;;3.78;100.00;95688.34;5115246;28;20384;-66
2021/12/26 03:00:05;;;;;;;99.32;9.70;;;;;;;3.54;100.00;95687.31;5114741;28;20395;-68
2021/12/26 03:02:30;;;;;;;103.20;8.70;;;;;;;3.56;100.00;95686.13;5115016;28;20380;-66
2021/12/26 03:04:56;;;;;;;72.88;9.73;;;;;;;3.64;100.00;95687.63;5114594;28;20745;-67
2021/12/26 03:07:21;;;;;;;111.43;9.00;;;;;;;3.76;100.00;95686.75;5114461;28;20408;-70
2021/12/26 03:09:49;;;;;;;45.07;9.33;;;;;;;3.50;100.00;95691.34;5114685;28;20868;-67
2021/12/26 03:12:14;;;;;;;33.53;8.95;;;;;;;3.59;100.00;95687.47;5114342;28;20389;-67
2021/12/26 03:14:41;;;;;;;18.27;9.00;;;;;;;3.66;100.00;95688.22;5096463;28;20385;-67
2021/12/26 03:17:07;;;;;;;45.65;8.88;;;;;;;3.68;100.00;95697.38;5114578;28;21005;-66
2021/12/26 03:19:34;;;;;;;20.88;8.63;;;;;;;3.79;100.00;95690.72;5114069;28;20949;-67
2021/12/26 03:22:00;;;;;;;29.15;8.43;;;;;;;3.71;100.00;95686.59;5113878;28;20438;-67
2021/12/26 03:24:26;;;;;;;43.47;8.63;;;;;;;3.81;100.00;95699.06;5114263;28;20786;-66
2021/12/26 03:27:03;;;;;;;12.40;7.83;;;;;;;3.66;100.00;95698.59;5113843;28;20529;-67
2021/12/26 03:29:29;;;;;;;36.57;8.73;;;;;;;3.91;100.00;95696.81;5095355;28;20384;-66
2021/12/26 03:31:54;;;;;;;30.50;9.00;;;;;;;4.00;100.00;95697.34;5095912;28;20396;-71
2021/12/26 03:34:20;;;;;;;26.53;9.23;;;;;;;3.88;100.00;95699.03;5113963;28;20780;-67
2021/12/26 03:36:50;;;;;;;89.05;9.00;;;;;;;3.66;100.00;95701.19;5113940;28;20397;-67
2021/12/26 03:39:15;;;;;;;22.23;8.50;;;;;;;3.63;100.00;95704.97;5114026;28;20410;-67
2021/12/26 03:41:40;;;;;;;53.03;8.87;;;;;;;3.88;100.00;95710.19;5095786;28;20748;-67
2021/12/26 03:44:06;;;;;;;66.55;9.45;;;;;;;4.18;100.00;95705.94;5114012;28;20384;-67
2021/12/26 03:46:31;;;;;;;49.27;9.30;;;;;;;4.22;100.00;95698.56;5114021;28;20932;-67
2021/12/26 03:49:00;;;;;;;103.93;9.80;;;;;;;3.89;100.00;95698.84;5095576;28;20521;-69
2021/12/26 03:51:26;;;;;;;36.97;8.57;;;;;;;3.84;100.00;95697.88;5113571;28;20445;-67
2021/12/26 03:53:51;;;;;;;140.70;9.37;;;;;;;3.62;100.00;95693.03;5113373;28;20861;-66
2021/12/26 03:56:17;;;;;;;31.67;9.07;;;;;;;3.75;100.00;95695.53;5114196;28;20388;-67
2021/12/26 03:58:42;;;;;;;55.87;9.77;;;;;;;3.70;100.00;95690.19;5113565;28;20471;-67
2021/12/26 04:01:08;;;;;;;35.92;9.32;;;;;;;3.82;100.00;95695.50;5112975;28;20392;-67
2021/12/26 04:03:33;;;;;;;128.13;10.77;;;;;;;3.75;100.00;95697.31;5113750;28;20423;-66
2021/12/26 04:05:59;;;;;;;95.20;10.50;;;;;;;3.70;100.00;95695.38;5113645;28;20392;-67
2021/12/26 04:08:24;;;;;;;144.83;9.63;;;;;;;3.70;100.00;95697.16;5113696;28;20420;-67
2021/12/26 04:10:50;;;;;;;29.67;10.02;;;;;;;3.71;100.00;95696.97;5113520;28;20406;-67
2021/12/26 04:13:16;;;;;;;62.20;10.20;;;;;;;3.88;100.00;95694.66;5113353;28;21952;-66
2021/12/26 04:15:41;;;;;;;66.73;11.17;;;;;;;3.82;100.00;95703.25;5113681;28;20399;-66
2021/12/26 04:18:07;;;;;;;78.13;10.52;;;;;;;3.89;100.00;95701.41;5112724;28;20393;-66
2021/12/26 04:20:33;;;;;;;64.32;10.45;;;;;;;3.66;100.00;95694.22;5095077;28;20396;-67
2021/12/26 04:22:59;;;;;;;43.20;9.82;;;;;;;3.41;100.00;95700.34;5113192;28;20392;-68
2021/12/26 04:25:25;;;;;;;48.88;10.82;;;;;;;3.82;100.00;95697.28;5113349;28;20387;-68
2021/12/26 04:27:51;;;;;;;151.50;11.85;;;;;;;3.82;100.00;95692.09;5112876;28;20396;-69
2021/12/26 04:30:19;;;;;;;80.50;10.37;;;;;;;3.89;100.00;95698.84;5113239;28;20441;-68
2021/12/26 04:32:44;;;;;;;111.38;11.32;;;;;;;3.70;100.00;95697.16;5113318;28;20385;-67
2021/12/26 04:35:10;;;;;;;86.73;11.23;;;;;;;3.87;100.00;95700.81;5112659;28;20387;-67
2021/12/26 04:37:36;;;;;;;73.40;10.77;;;;;;;3.74;100.00;95701.72;5112578;28;20419;-67
2021/12/26 04:40:04;;;;;;;60.83;10.53;;;;;;;3.63;100.00;95689.44;5111781;28;20385;-68
2021/12/26 04:42:29;;;;;;;103.20;10.43;;;;;;;3.49;100.00;95697.50;5113064;28;20389;-67
2021/12/26 04:44:55;;;;;;;82.47;11.33;;;;;;;3.47;100.00;95691.72;5113254;28;20403;-68
2021/12/26 04:47:20;;;;;;;58.15;10.25;;;;;;;3.58;100.00;95693.66;5113119;28;20411;-68
2021/12/26 04:49:46;;;;;;;19.97;9.67;;;;;;;3.37;100.00;95688.81;5112562;28;20466;-68
2021/12/26 04:52:11;;;;;;;40.83;9.17;;;;;;;3.25;100.00;95691.28;5112715;28;20400;-68
2021/12/26 04:54:37;;;;;;;32.50;9.55;;;;;;;3.72;100.00;95695.16;5112431;28;20399;-68
2021/12/26 04:57:02;;;;;;;46.73;10.80;;;;;;;3.76;100.00;95697.13;5112932;28;20934;-67
2021/12/26 04:59:28;;;;;;;30.00;10.18;;;;;;;3.73;100.00;95701.94;5112641;28;20386;-68
2021/12/26 05:01:54;;;;;;;81.68;10.38;;;;;;;3.72;100.00;95698.56;5111525;28;20475;-68
2021/12/26 05:04:20;;;;;;;34.00;10.07;;;;;;;3.66;100.00;95701.97;5112575;28;20385;-68
2021/12/26 05:06:47;;;;;;;20.53;10.37;;;;;;;3.71;100.00;95699.56;5112403;28;20408;-68
2021/12/26 05:09:14;;;;;;;88.97;11.38;;;;;;;3.90;100.00;95697.03;5112034;28;20416;-68
2021/12/26 05:11:39;;;;;;;107.45;9.88;;;;;;;3.59;100.00;95703.81;5094436;28;20422;-68
2021/12/26 05:14:05;;;;;;;68.20;10.93;;;;;;;3.81;100.00;95704.25;5094021;28;20545;-68
2021/12/26 05:16:31;;;;;;;75.63;10.77;;;;;;;3.50;100.00;95705.09;5112296;28;20419;-68
2021/12/26 05:18:56;;;;;;;25.27;10.60;;;;;;;3.65;100.00;95691.81;5094163;28;20407;-67
2021/12/26 05:21:22;;;;;;;23.67;9.57;;;;;;;3.80;100.00;95700.06;5111627;28;20388;-68
2021/12/26 05:23:47;;;;;;;79.87;10.53;;;;;;;3.83;100.00;95697.06;5111831;28;20881;-68
2021/12/26 05:26:12;;;;;;;32.43;10.23;;;;;;;3.65;100.00;95699.59;5112136;28;20379;-67
2021/12/26 05:28:38;;;;;;;17.63;9.87;;;;;;;3.68;100.00;95701.75;5112201;28;20761;-68
2021/12/26 05:31:03;;;;;;;32.83;9.60;;;;;;;3.28;100.00;95701.22;5112037;28;20383;-68
2021/12/26 05:33:29;;;;;;;32.27;9.27;;;;;;;3.35;100.00;95697.56;5112033;28;20400;-68
2021/12/26 05:35:54;;;;;;;13.43;9.70;;;;;;;3.71;100.00;95699.56;5111739;28;20388;-69
2021/12/26 05:38:19;;;;;;;13.80;10.50;;;;;;;3.74;100.00;95696.53;5111812;28;20412;-68
2021/12/26 05:40:45;;;;;;;24.70;10.07;;;;;;;3.79;100.00;95700.31;5112061;28;20376;-68
2021/12/26 05:43:10;;;;;;;14.10;9.82;;;;;;;3.84;100.00;95695.28;5112694;28;20907;-68
2021/12/26 05:45:36;;;;;;;16.03;9.87;;;;;;;3.78;100.00;95698.72;5112298;28;20385;-68
2021/12/26 05:48:01;;;;;;;14.10;10.50;;;;;;;3.81;100.00;95700.88;5112205;28;20396;-67
2021/12/26 05:50:27;;;;;;;13.27;10.07;;;;;;;3.86;100.00;95704.41;5111456;28;20408;-67
2021/12/26 05:52:52;;;;;;;16.40;10.50;;;;;;;3.92;100.00;95695.81;5117626;28;20431;-67
2021/12/26 05:55:18;;;;;;;14.82;11.10;;;;;;;4.08;100.00;95697.84;5118552;28;20446;-67
2021/12/26 05:57:43;;;;;;;15.48;11.05;;;;;;;4.17;100.00;95699.19;5118929;28;20399;-67
2021/12/26 06:00:13;;;;;;;13.57;10.03;;;;;;;4.28;100.00;95695.09;5118489;28;20782;-68
2021/12/26 06:02:39;;;;;;;13.95;10.57;;;;;;;4.33;100.00;95697.84;5118569;28;20388;-67
2021/12/26 06:05:05;;;;;;;12.85;9.45;;;;;;;4.37;100.00;95701.59;5118632;28;20398;-68
2021/12/26 06:07:31;;;;;;;12.87;10.10;;;;;;;4.15;100.00;95698.59;5118350;28;20412;-67
2021/12/26 06:09:56;;;;;;;11.70;9.83;;;;;;;4.06;100.00;95701.69;5118504;28;20384;-67
2021/12/26 06:12:21;;;;;;;13.82;10.98;;;;;;;4.13;100.00;95702.41;5118785;28;20389;-67
2021/12/26 06:14:47;;;;;;;14.17;10.03;;;;;;;4.14;100.00;95696.22;5100439;28;20391;-67
2021/12/26 06:17:13;;;;;;;12.25;9.68;;;;;;;4.19;100.00;95697.16;5118447;28;20414;-67
2021/12/26 06:19:38;;;;;;;12.52;9.93;;;;;;;4.35;100.00;95695.03;5118883;28;20384;-67
2021/12/26 06:22:04;;;;;;;11.67;9.63;;;;;;;4.41;100.00;95692.38;5118121;28;20445;-67
2021/12/26 06:24:30;;;;;;;14.27;10.00;;;;;;;4.68;100.00;95692.88;5118529;28;20384;-67
2021/12/26 06:26:55;;;;;;;13.18;10.20;;;;;;;4.61;100.00;95687.00;5118222;28;20388;-67
2021/12/26 06:29:21;;;;;;;13.50;10.17;;;;;;;4.47;100.00;95701.88;5118365;28;20394;-67
2021/12/26 06:31:46;;;;;;;11.48;9.25;;;;;;;4.54;100.00;95699.22;5118560;28;20388;-67
2021/12/26 06:34:12;;;;;;;12.37;9.67;;;;;;;4.69;100.00;95696.28;5099798;28;20469;-67
2021/12/26 06:36:37;;;;;;;13.47;10.27;;;;;;;4.66;100.00;95694.13;5118088;28;20395;-67
2021/12/26 06:39:03;;;;;;;13.90;10.30;;;;;;;4.52;100.00;95704.63;5117486;28;20400;-68
2021/12/26 06:41:29;;;;;;;13.95;9.90;;;;;;;4.40;100.00;95705.56;5118218;28;20428;-67
2021/12/26 06:43:54;;;;;;;12.87;9.90;;;;;;;4.27;100.00;95703.88;5118173;28;20919;-68
2021/12/26 06:46:20;;;;;;;13.13;10.00;;;;;;;4.15;100.00;95705.59;5118561;28;20388;-67
2021/12/26 06:48:45;;;;;;;12.55;9.85;;;;;;;4.37;100.00;95700.78;5117962;28;20815;-67
2021/12/26 06:51:11;;;;;;;13.07;10.30;;;;;;;4.73;100.00;95700.03;5117878;28;20384;-67
2021/12/26 06:53:37;;;;;;;14.20;10.27;;;;;;;4.77;100.00;95707.16;5118418;28;20521;-67
2021/12/26 06:56:03;;;;;;;14.32;10.43;;;;;;;4.60;100.00;95713.94;5118168;28;20387;-67
2021/12/26 06:58:28;;;;;;;14.35;10.85;;;;;;;4.62;100.00;95711.13;5099614;28;20407;-67
2021/12/26 07:00:53;;;;;;;14.95;11.10;;;;;;;4.65;100.00;95724.47;5116934;28;20432;-67
2021/12/26 07:03:19;;;;;;;14.40;10.50;;;;;;;4.70;100.00;95723.81;5115483;28;20396;-67
2021/12/26 07:05:44;;;;;;;15.60;10.55;;;;;;;4.56;100.00;95712.78;5114547;28;20395;-67
2021/12/26 07:08:10;;;;;;;13.57;9.83;;;;;;;4.74;100.00;95720.56;5114204;28;20419;-67
2021/12/26 07:10:35;;;;;;;14.60;10.30;;;;;;;4.74;100.00;95723.16;5114359;28;20389;-68
2021/12/26 07:13:01;;;;;;;15.50;11.32;;;;;;;4.65;100.00;95721.88;5114497;28;20403;-67
2021/12/26 07:15:27;;;;;;;15.30;10.52;;;;;;;4.86;100.00;95724.03;5096682;28;20885;-67
2021/12/26 07:17:52;;;;;;;15.53;10.83;;;;;;;4.70;100.00;95724.59;5114713;28;20487;-68
2021/12/26 07:20:18;;;;;;;16.70;11.57;;;;;;;4.52;100.00;95729.78;5096110;28;20879;-67
2021/12/26 07:22:45;;;;;;;17.45;11.65;;;;;;;4.78;100.00;95729.53;5114889;28;20943;-67
2021/12/26 07:25:10;;;;;;;15.43;11.45;;;;;;;4.82;100.00;95730.69;5096171;28;20398;-68
2021/12/26 07:27:36;;;;;;;14.93;11.27;;;;;;;4.79;100.00;95727.72;5113960;28;20799;-68
2021/12/26 07:30:03;;;;;;;14.87;11.53;;;;;;;4.83;100.00;95739.25;5114457;28;20729;-67
2021/12/26 07:32:30;;;;;;;14.77;11.60;;;;;;;4.56;100.00;95731.75;5114491;28;20407;-70
2021/12/26 07:35:00;;;;;;;17.02;12.35;;;;;;;3.87;100.00;95731.94;5114312;28;20392;-70
2021/12/26 07:37:26;;;;;;;17.40;12.63;;;;;;;4.39;100.00;95730.72;5113968;28;20415;-68
2021/12/26 07:39:53;;;;;;;15.13;12.07;;;;;;;4.60;100.00;95738.09;5113468;28;20560;-67
2021/12/26 07:42:19;;;;;;;16.58;11.90;;;;;;;4.72;100.00;95738.19;5113567;28;20404;-68
2021/12/26 07:44:44;;;;;;;15.90;11.95;;;;;;;4.71;100.00;95736.59;5114297;28;20445;-68
2021/12/26 07:47:10;;;;;;;16.23;11.65;;;;;;;4.65;100.00;95734.84;5113905;28;20877;-67
2021/12/26 07:49:35;;;;;;;14.67;11.77;;;;;;;4.65;100.00;95737.44;5113529;28;20449;-68
2021/12/26 07:52:03;;;;;;;14.63;11.40;;;;;;;4.95;100.00;95740.94;5113722;28;20391;-68
2021/12/26 07:54:28;;;;;;;15.87;11.07;;;;;;;4.97;100.00;95754.47;5113820;28;20856;-68
2021/12/26 07:56:54;;;;;;;13.00;10.30;;;;;;;4.76;100.00;95747.09;5113944;28;20388;-68
2021/12/26 07:59:20;;;;;;;14.03;10.73;;;;;;;5.06;100.00;95754.97;5113392;28;20725;-67
2021/12/26 08:01:46;;;;;;;13.10;10.53;;;;;;;5.22;100.00;95754.41;5113194;28;20410;-67
2021/12/26 08:04:13;;;;;;;14.10;10.82;;;;;;;5.22;100.00;95754.41;5113393;28;20388;-68
2021/12/26 08:06:39;;;;;;;13.68;10.65;;;;;;;5.13;100.00;95750.50;5113749;28;20416;-67
2021/12/26 08:09:06;;;;;;;13.15;10.50;;;;;;;5.28;100.00;95753.53;5113400;28;20459;-68
2021/12/26 08:11:31;;;;;;;13.15;10.43;;;;;;;5.11;100.00;95756.94;5095567;28;20419;-68
2021/12/26 08:13:57;;;;;;;12.93;10.40;;;;;;;5.23;100.00;95761.19;5113226;28;20820;-68
2021/12/26 08:16:23;;;;;;;14.23;10.93;;;;;;;5.22;100.00;95757.00;5095345;28;20745;-66
2021/12/26 08:18:48;;;;;;;13.10;10.88;;;;;;;5.53;100.00;95755.19;5113688;28;20391;-66
2021/12/26 08:21:13;;;;;;;12.87;10.47;;;;;;;5.41;100.00;95755.13;5113030;28;20403;-67
2021/12/26 08:23:39;;;;;;;12.88;10.52;;;;;;;5.78;100.00;95748.06;5095146;28;21000;-67
2021/12/26 08:26:04;;;;;;;13.80;10.30;;;;;;;5.78;100.00;95756.66;5112873;28;20399;-67
2021/12/26 08:28:30;;;;;;;12.32;10.50;;;;;;;5.80;100.00;95754.63;5113167;28;20868;-67
2021/12/26 08:30:56;;;;;;;12.32;10.10;;;;;;;5.76;100.00;95748.28;5112497;28;20393;-67
2021/12/26 08:33:21;;;;;;;12.70;10.37;;;;;;;5.61;100.00;95760.91;5113275;28;20384;-67
2021/12/26 08:35:48;;;;;;;12.10;10.10;;;;;;;5.73;100.00;95764.34;5112663;28;20455;-67
2021/12/26 08:38:15;;;;;;;11.98;9.65;;;;;;;5.90;100.00;95748.94;5112180;28;20803;-66
2021/12/26 08:40:41;;;;;;;11.43;9.75;;;;;;;5.92;100.00;95752.09;5112175;28;20388;-66
2021/12/26 08:43:07;;;;;;;11.43;9.87;;;;;;;6.02;100.00;95751.56;5112452;28;20417;-66
2021/12/26 08:45:33;;;;;;;12.30;9.17;;;;;;;5.73;100.00;95766.13;5113006;28;20395;-67
2021/12/26 08:47:59;;;;;;;11.10;9.70;;;;;;;5.86;100.00;95761.53;5112404;28;20864;-65
2021/12/26 08:50:25;;;;;;;11.73;9.65;;;;;;;5.75;100.00;95758.88;5112793;28;20401;-65
2021/12/26 08:52:51;;;;;;;10.88;9.38;;;;;;;5.94;100.00;95751.88;5112670;28;20402;-67
2021/12/26 08:55:17;;;;;;;11.40;9.40;;;;;;;6.36;100.00;95756.00;5112665;28;20471;-66
2021/12/26 08:57:43;;;;;;;11.05;9.38;;;;;;;6.29;100.00;95759.75;5094421;28;20408;-65
2021/12/26 09:00:10;;;;;;;12.10;9.97;;;;;;;6.42;100.00;95760.31;5112172;28;20400;-67
2021/12/26 09:02:36;;;;;;;10.68;9.57;;;;;;;6.09;100.00;95766.03;5112615;28;20390;-67
2021/12/26 09:05:02;;;;;;;10.50;9.30;;;;;;;6.17;100.00;95760.50;5112488;28;20468;-67
2021/12/26 09:07:31;;;;;;;11.05;9.45;;;;;;;6.18;100.00;95762.09;5112626;28;20523;-67
2021/12/26 09:09:57;;;;;;;12.50;10.43;;;;;;;6.48;100.00;95764.59;5112073;28;20849;-67
2021/12/26 09:12:23;;;;;;;12.02;10.63;;;;;;;6.42;100.00;95767.31;5112809;28;20415;-65
2021/12/26 09:14:49;;;;;;;13.23;11.05;;;;;;;6.16;100.00;95766.72;5112053;28;20380;-67
2021/12/26 09:17:14;;;;;;;15.27;12.23;;;;;;;6.24;100.00;95766.38;5111797;28;20504;-66
2021/12/26 09:19:40;;;;;;;14.87;12.47;;;;;;;6.14;100.00;95773.16;5112451;28;20414;-69
2021/12/26 09:22:07;;;;;;;12.95;11.55;;;;;;;6.48;100.00;95774.22;5112085;28;20388;-67
2021/12/26 09:24:33;;;;;;;12.10;10.23;;;;;;;6.22;100.00;95772.84;5112384;28;20510;-66
2021/12/26 09:26:59;;;;;;;10.40;9.27;;;;;;;6.09;100.00;95770.44;5111689;28;20914;-68
2021/12/26 09:29:25;;;;;;;10.35;8.63;;;;;;;6.39;100.00;95776.38;5112338;28;20757;-67
2021/12/26 09:31:51;;;;;;;9.00;8.10;;;;;;;6.52;100.00;95786.56;5112123;28;20384;-66
2021/12/26 09:34:17;;;;;;;9.20;8.20;;;;;;;6.53;100.00;95785.53;5111696;28;20398;-67
2021/12/26 09:36:44;;;;;;;10.57;8.55;;;;;;;6.44;100.00;95786.91;5112134;28;20388;-66
2021/12/26 09:39:09;;;;;;;9.55;8.45;;;;;;;6.22;100.00;95784.06;5111686;28;20419;-68
2021/12/26 09:41:37;;;;;;;8.93;8.03;;;;;;;6.29;100.00;95791.75;5112174;28;20389;-68
2021/12/26 09:44:03;;;;;;;10.05;8.82;;;;;;;6.39;100.00;95784.19;5112008;28;20779;-69
2021/12/26 09:46:30;;;;;;;10.70;9.30;;;;;;;6.66;100.00;95781.94;5111958;28;20388;-70
2021/12/26 09:48:55;;;;;;;10.70;9.55;;;;;;;6.49;100.00;95781.03;5111629;28;20469;-70
2021/12/26 09:51:20;;;;;;;10.57;9.47;;;;;;;6.40;100.00;95785.78;5093679;28;20392;-68
2021/12/26 09:53:46;;;;;;;10.60;9.30;;;;;;;6.42;100.00;95775.91;5111835;28;20410;-68
2021/12/26 09:56:12;;;;;;;9.80;8.80;;;;;;;6.35;100.00;95780.47;5111839;28;20384;-68
2021/12/26 09:59:04;;;;;;;10.30;9.07;;;;;;;6.64;100.00;95774.34;5112062;28;20392;-65
2021/12/26 10:01:40;;;;;;;10.82;9.10;;;;;;;6.93;100.00;95767.44;5112081;28;20868;-67
2021/12/26 10:04:18;;;;;;;9.88;8.88;;;;;;;6.87;100.00;95770.16;5110955;28;20865;-69
2021/12/26 10:06:44;;;;;;;10.48;8.98;;;;;;;6.80;100.00;95767.66;5112116;28;20821;-70
2021/12/26 10:09:10;;;;;;;10.00;8.97;;;;;;;6.76;100.00;95761.31;5111573;28;20416;-68
2021/12/26 10:11:42;;;;;;;10.87;9.00;;;;;;;6.73;100.00;95767.00;5112085;28;20464;-67
2021/12/26 10:14:11;;;;;;;9.82;8.70;;;;;;;6.68;100.00;95759.88;5110795;28;20388;-67
2021/12/26 10:16:40;;;;;;;8.95;8.05;;;;;;;6.96;100.00;95753.16;5111697;28;20396;-68
2021/12/26 10:19:06;;;;;;;9.43;8.43;;;;;;;7.07;100.00;95745.34;5093394;28;20392;-67
2021/12/26 10:21:36;;;;;;;9.13;8.15;;;;;;;7.13;100.00;95740.22;5111747;28;20422;-67
2021/12/26 10:24:14;;;;;;;8.95;8.05;;;;;;;7.11;100.00;95737.84;5111985;28;20480;-67
2021/12/26 10:26:44;;;;;;;9.00;8.10;;;;;;;7.08;100.00;95741.69;5094709;28;20431;-67
2021/12/26 10:29:24;;;;;;;9.55;8.20;;;;;;;7.26;100.00;95739.94;5090353;28;20397;-68
2021/12/26 10:31:59;;;;;;;8.70;7.90;;;;;;;7.30;100.00;95744.47;5104499;28;20447;-69
2021/12/26 10:34:28;;;;;;;7.85;7.05;;;;;;;7.64;99.65;95737.53;5110618;28;20633;-68
2021/12/26 10:36:56;;;;;;;7.28;6.57;;;;;;;7.69;99.77;95737.63;5111553;28;20745;-68
2021/12/26 10:39:25;;;;;;;7.20;6.50;;;;;;;7.82;97.21;95728.72;5115078;27;20390;-69
2021/12/26 10:42:03;;;;;;;7.70;6.90;;;;;;;7.67;97.88;95733.69;5115456;27;20436;-68
2021/12/26 10:44:34;;;;;;;7.93;7.13;;;;;;;7.63;98.59;95735.19;5115101;28;20384;-69
2021/12/26 10:47:12;;;;;;;7.85;7.05;;;;;;;7.67;98.99;95739.69;5114732;28;20380;-69
2021/12/26 10:49:44;;;;;;;7.60;6.80;;;;;;;7.58;98.78;95735.84;5115228;28;20445;-67
2021/12/26 10:52:13;;;;;;;7.68;6.88;;;;;;;7.58;99.05;95735.09;5114312;28;20392;-67
2021/12/26 10:54:41;;;;;;;7.00;6.28;;;;;;;7.65;98.48;95730.50;5115157;28;20391;-67
2021/12/26 10:57:11;;;;;;;7.38;6.68;;;;;;;7.69;97.50;95737.63;5107263;27;20775;-67
2021/12/26 10:59:41;;;;;;;7.80;6.35;;;;;;;7.85;97.80;95731.69;5114909;28;20382;-67
2021/12/26 11:02:07;;;;;;;8.75;6.85;;;;;;;7.76;99.29;95729.66;5114644;28;20728;-68
2021/12/26 11:04:52;;;;;;;7.90;6.90;;;;;;;7.60;99.44;95733.81;5115257;28;20467;-68
2021/12/26 11:07:19;;;;;;;7.10;6.40;;;;;;;8.07;97.14;95723.16;5114949;28;20486;-68
2021/12/26 11:09:44;;;;;;;7.50;6.75;;;;;;;7.85;98.61;95723.06;5115026;28;20394;-67
2021/12/26 11:12:10;;;;;;;7.55;6.80;;;;;;;7.89;97.28;95730.16;5114662;28;20380;-68
2021/12/26 11:14:59;;;;;;;8.00;7.20;;;;;;;7.92;98.08;95723.69;5114367;28;20392;-67
2021/12/26 11:17:44;;;;;;;7.78;7.00;;;;;;;8.04;97.73;95716.56;5114636;28;20475;-67